Aeroporto :
LOGIN :

Iscrizione | Disclaimer

   EN    FR    IT 

 










Sommario :    VFR   VFR Marginale   IFR   IFR Intensivo   IFR Molto Intensivo
Visibilità : 
Base nubi : 
>= 8 km
>= 3000ft
5 / 8 km
1000 / 3000 ft
1500m / 5 km
500 / 1000 ft
800 / 1500m
200 / 500 ft
< 800m
< 200 ft
Simboli :   Temporali  Nebbia  Neve Forte  Precipitazioni Forti  Vento > 20 kt
SIGMETs :   Varie  Temporali  Ghiacco  Turbolenza  Onda orograficha  Ceneri Vulcaniche






- Altitudine del aeroporto : 1187 ft


LIBV - Gioia del Colle Bari

ULTIMO METAR :
  • 171455Z 02005KT CAVOK 17/08 Q1023 RMK FEW FEW200 VIS MIN 9999 WIND THR32 VRB01KT WIND THR14 02006KT BLU

METARs OBSOLETI :
  • 171355Z 29004KT CAVOK 17/M01 Q1023 RMK FEW FEW200 VIS MIN 9999 WIND THR32 VRB02KT WIND THR14 VRB03KT BLU
  • 171255Z 29004KT CAVOK 16/M02 Q1024 RMK FEW FEW200 VIS MIN 9999 WIND THR32 30002KT WIND THR14 27003KT BLU

TAF TAF LIBV
Valido dal 17 a 15 ore il 18 a 00 ore UTC


171400Z 1715/1724 VRB03KT CAVOK
BECMG 1718/1720 5000 BR NSC



MetMap, La meteo Aeronautica in un colpo d'occhio ! - Copyright ORBIFLY Dicembre 2007 - Disclaimer

ORBIFLY MET'MAP TEAM :

Programmazione e sviluppo : Alexandra Zaïnal
Concezione : Baudouin d'Aumeries
Aiuto per la programmazione : Marc-Olivier Méhu
Supporto tecnico e logistico : Manuel Goepfert
Aiuto per la traduzione : Arnaldo La Scala

Contatto : metmap@orbifly.com




FONTI E CREDITI :

   NOAA